• Join FlightAware (Why Join?)
  • Login
  • US Flag 
11:41PM EDT


 

Airport Tracker/Info


-or-


 

Live Flight TrackerFlight Track Log ✈ EGF4279 ✈ 11-Jun-2013 ✈ KORD - KCMI

Flight Track Log - Related Links

Times and Time Zones

All times are in EDT time to prevent confusion due to time zone crossing. See the EGF4279 flight status page for this flight to view local times or setup timezone preferences in your user account.

Time Position Orientation Groundspeed Altitude Reporting Facility
EDT Latitude Longitude Course Direction KTS MPH feet Rate Location/Type
05:59PM 41.9167 -87.9167 188° South 182 209 2,800  Level Chicago TRACON
06:00PM 41.8048 -87.9414 180° South  Level Estimated
06:00PM 41.8500 -87.9333 191° South 234 269 4,300  Level Chicago TRACON
06:00PM 41.8117 -87.9475 195° South 238 274 5,000 1,620 Climbing Chicago Center
06:01PM 41.7163 -87.9587 180° South  Level Estimated
06:01PM 41.7336 -87.9636 189° South 270 311 7,200  Level Chicago Center
06:02PM 41.6279 -87.9759 192° South  Level Estimated
06:03PM 41.5395 -87.9931 189° South  Level Estimated
06:03PM 41.6381 -87.9822 188° South 292 336 9,600  Level Chicago Center
06:04PM 41.4659 -88.0072 188° South  Level FlightAware Approximate
06:04PM 41.5556 -87.9981 188° South 299 344 11,400  Level Chicago Center
06:05PM 41.4700 -88.0139 188° South 308 354 13,300 1,800 Climbing Chicago Center
06:06PM 41.3758 -88.0342 189° South 312 359 15,200 1,560 Climbing Chicago Center
06:07PM 41.2883 -88.0486 187° South 319 367 16,600 840 Climbing Chicago Center
06:08PM 41.1922 -88.0669 188° South 338 389 17,000 180 Climbing Chicago Center
06:09PM 41.0892 -88.0856 188° South 364 419 17,000  Level Chicago Center
06:10PM 40.9656 -88.1086 188° South 374 430 17,000 -120 Level Chicago Center
06:11PM 40.8653 -88.1261 188° South 367 422 16,800 -1,020 Descending Chicago Center
06:12PM 40.7667 -88.1439 188° South 359 413 14,900 -1,980 Descending Chicago Center
06:13PM 40.6683 -88.1636 189° South 360 414 12,800 -1,920 Descending Chicago Center
06:14PM 40.5756 -88.1794 187° South 342 394 11,000 -960 Descending Chicago Center
06:15PM 40.4728 -88.1981 188° South 312 359 10,900 -840 Descending Chicago Center
06:16PM 40.3917 -88.2128 188° South 298 343 9,300 -1,500 Descending Chicago Center
06:17PM 40.3131 -88.2283 189° South 289 333 7,800 -1,620 Descending Chicago Center
06:18PM 40.2442 -88.2564 197° South 263 303 6,000 -1,800 Descending Chicago Center